Search for airport 
image banner adimage banner adimage banner ad
image banner ad

NV67 - Pilot Creek Ranches

Located in Montello, United States

ICAO - NV67, IATA -

Data provided by Airmate  

General information

Coordinates: N41°6'57" W114°6'49"
Elevation is 4980 feet MSL.
Magnetic variation is 15° East
View others Airports in Nevada

Operational data

Special qualification required
Current time UTC:
Current local time:
Weather at : KENV - Wendover ( 45 km )
METAR: KENV 092256Z AUTO 21009KT 10SM CLR 16/M06 A2999 RMK AO2 SLP144 T01611056
TAF: KENV 091740Z 0918/1018 14008KT P6SM BKN150 FM100200 32009KT P6SM SCT080 BKN100
View NOTAMs / SUP AIP / TFR affecting this airport [VIEW]
Communications frequencies: [VIEW]

Runways:

RWY identifierQFULength (ft)Width (ft)SurfaceLDA (ft)
07200025EARTH
25200025EARTH

Airport contact information

Address: Montello United States

Satellite view of NV67